LGSA/CHQ METAR and TAF weather

Enter ICAO airport designator
Station Type Date Time Source
LGSA METAR 2020/06/06 15:20 UTC NOAA

LGSA 061520Z 30020KT 9999 FEW020 SCT025 22/19 Q1009


Station Type Date Time Source
LGSA Decoded METAR 2020/06/06 15:20 UTC NOAA

Souda Airport , Greece (LGSA) 35-29N 024-07E 151M
Jun 06, 2020 - 11:20 AM EDT / 2020.06.06 1520 UTC
Wind: from the WNW (300 degrees) at 23 MPH (20 KT):0
Visibility: greater than 7 mile(s):0
Sky conditions: partly cloudy
Temperature: 71 F (22 C)
Dew Point: 66 F (19 C)
Relative Humidity: 83%
Pressure (altimeter): 29.80 in. Hg (1009 hPa)
ob: LGSA 061520Z 30020KT 9999 FEW020 SCT025 22/19 Q1009
cycle: 15

Station Type Date Time Source
LGSA TAF 2020/06/06 12:12 UTC NOAA

TAF LGSA 061100Z 0612/0712 26008KT 9999 FEW020
BECMG 0612/0614 28018KT

Example: see airport list